Fort Meade, MD

5:35 AM EST on December 22, 2014 (GMT -0500)
Seven Oaks | Change Station
CLOSE
Current Station
Personal Weather Station
Location: Odenton, MD
Elevation: 154 ft
Nearby Weather Stations

Elev 154 ft 39.11 °N, 76.71 °W | Updated 17 minutes ago

Overcast
Overcast
26.4 °F
Feels Like 26 °F
N
0.0
Wind Variable Wind from North
Gusts 0.0 mph

Today
High -- | Low -- °F
--% Chance of Precip.
Yesterday
High -- | Low -- °F
Precip. -- in
7:23 AM 4:48 PM
New Moon, 0% visible
Pressure 30.32 in
Visibility 5.0 miles
Clouds Overcast 4500 ft
Windchill 26 °F
Dew Point 22 °F
Humidity 85%
Rainfall 0.00 in
Snow Depth Not available.
UV 0 out of 12
Pollen .10 out of 12
Air Quality Not available.
Flu Activity Not available.
METAR KFME 221018Z AUTO 00000KT 5SM OVC045 M03/M04 A3032 RMK AO1

More Conditions Fewer Conditions

Pressure 30.32 in
Visibility 5.0 miles
Clouds Overcast 4500 ft
Windchill 26 °F
Dew Point 22 °F
Humidity 85%
Rainfall 0.00 in
Snow Depth Not available.
UV 0 out of 12
Pollen .10 out of 12
Air Quality Not available.
Flu Activity Not available.
METAR KFME 221018Z AUTO 00000KT 5SM OVC045 M03/M04 A3032 RMK AO1

More Conditions Fewer Conditions

10-Day Weather Forecast

Almanac

Astronomy

Dec. 22, 2014 Rise Set
Actual Time
Civil Twilight
Nautical Twilight
Astronomical Twilight
Moon
Length of Visible Light
Length of Day
Tomorrow will be .
, % of the Moon is Illuminated

Today's Extremes

State Highs State Lows

Community

WunderPhotos

Upload Photos

1,779,583 photos uploaded!

WunderBlogs® & News

Nearby

Air Quality

  Air Quality AQ Index Pollutant
Not available.

Snow Depth

Station Depth Elevation

Earthquake Activity

City Distance Mag. Time & Date
Minimum magnitude displayed is 2.5.

Coastal Water Temperatures

Place Temperature

Nearby Weather Stations